sensor_id;sensor_type;location;lat;lon;timestamp;P1;durP1;ratioP1;P2;durP2;ratioP2
2538;SDS011;1280;49.760;9.664;2023-08-21T00:01:03;12.97;;;7.70;;
2538;SDS011;1280;49.760;9.664;2023-08-21T00:03:31;12.37;;;8.37;;
2538;SDS011;1280;49.760;9.664;2023-08-21T00:06:00;11.23;;;7.67;;
2538;SDS011;1280;49.760;9.664;2023-08-21T00:08:28;12.47;;;7.90;;
2538;SDS011;1280;49.760;9.664;2023-08-21T00:10:56;13.13;;;8.70;;
2538;SDS011;1280;49.760;9.664;2023-08-21T00:13:24;11.73;;;7.73;;
2538;SDS011;1280;49.760;9.664;2023-08-21T00:15:52;14.43;;;8.47;;
2538;SDS011;1280;49.760;9.664;2023-08-21T00:18:22;14.63;;;8.27;;
2538;SDS011;1280;49.760;9.664;2023-08-21T00:20:51;14.37;;;8.53;;
2538;SDS011;1280;49.760;9.664;2023-08-21T00:23:19;12.47;;;8.37;;
2538;SDS011;1280;49.760;9.664;2023-08-21T00:25:47;14.20;;;7.60;;
2538;SDS011;1280;49.760;9.664;2023-08-21T00:28:15;11.43;;;8.40;;
2538;SDS011;1280;49.760;9.664;2023-08-21T00:30:44;11.33;;;8.20;;
2538;SDS011;1280;49.760;9.664;2023-08-21T00:33:13;14.47;;;8.40;;
2538;SDS011;1280;49.760;9.664;2023-08-21T00:35:42;13.23;;;8.20;;
2538;SDS011;1280;49.760;9.664;2023-08-21T00:38:10;14.57;;;8.43;;
2538;SDS011;1280;49.760;9.664;2023-08-21T00:40:38;13.10;;;8.47;;
2538;SDS011;1280;49.760;9.664;2023-08-21T00:43:07;13.63;;;9.17;;
2538;SDS011;1280;49.760;9.664;2023-08-21T00:45:35;14.33;;;9.50;;
2538;SDS011;1280;49.760;9.664;2023-08-21T00:48:05;16.87;;;8.37;;
2538;SDS011;1280;49.760;9.664;2023-08-21T00:50:33;13.57;;;9.17;;
2538;SDS011;1280;49.760;9.664;2023-08-21T00:53:03;18.10;;;9.17;;
2538;SDS011;1280;49.760;9.664;2023-08-21T00:55:32;13.27;;;8.60;;
2538;SDS011;1280;49.760;9.664;2023-08-21T00:58:01;13.73;;;8.53;;
2538;SDS011;1280;49.760;9.664;2023-08-21T01:00:31;13.07;;;8.43;;
2538;SDS011;1280;49.760;9.664;2023-08-21T01:03:01;13.03;;;8.43;;
2538;SDS011;1280;49.760;9.664;2023-08-21T01:05:29;13.67;;;8.50;;
2538;SDS011;1280;49.760;9.664;2023-08-21T01:07:59;10.90;;;8.20;;
2538;SDS011;1280;49.760;9.664;2023-08-21T01:10:35;11.80;;;8.20;;
2538;SDS011;1280;49.760;9.664;2023-08-21T01:13:11;13.07;;;8.23;;
2538;SDS011;1280;49.760;9.664;2023-08-21T01:15:47;14.27;;;9.73;;
2538;SDS011;1280;49.760;9.664;2023-08-21T01:18:18;12.40;;;8.50;;
2538;SDS011;1280;49.760;9.664;2023-08-21T01:20:49;14.37;;;9.47;;
2538;SDS011;1280;49.760;9.664;2023-08-21T01:23:35;15.20;;;9.33;;
2538;SDS011;1280;49.760;9.664;2023-08-21T01:26:03;14.73;;;8.70;;
2538;SDS011;1280;49.760;9.664;2023-08-21T01:28:31;14.43;;;8.60;;
2538;SDS011;1280;49.760;9.664;2023-08-21T01:31:03;12.53;;;8.70;;
2538;SDS011;1280;49.760;9.664;2023-08-21T01:33:37;11.73;;;8.90;;
2538;SDS011;1280;49.760;9.664;2023-08-21T01:36:10;15.50;;;10.13;;
2538;SDS011;1280;49.760;9.664;2023-08-21T01:38:40;12.63;;;9.10;;
2538;SDS011;1280;49.760;9.664;2023-08-21T01:41:10;16.10;;;10.40;;
2538;SDS011;1280;49.760;9.664;2023-08-21T01:43:38;14.27;;;9.20;;
2538;SDS011;1280;49.760;9.664;2023-08-21T01:46:08;15.37;;;10.13;;
2538;SDS011;1280;49.760;9.664;2023-08-21T01:48:36;16.80;;;9.00;;
2538;SDS011;1280;49.760;9.664;2023-08-21T01:55:18;12.77;;;8.93;;
2538;SDS011;1280;49.760;9.664;2023-08-21T01:57:48;15.37;;;9.30;;
2538;SDS011;1280;49.760;9.664;2023-08-21T02:00:16;11.87;;;8.50;;
2538;SDS011;1280;49.760;9.664;2023-08-21T02:02:45;14.70;;;8.90;;
2538;SDS011;1280;49.760;9.664;2023-08-21T02:05:14;14.57;;;9.20;;
2538;SDS011;1280;49.760;9.664;2023-08-21T02:07:42;15.77;;;9.27;;
2538;SDS011;1280;49.760;9.664;2023-08-21T02:10:10;12.83;;;9.00;;
2538;SDS011;1280;49.760;9.664;2023-08-21T02:12:40;17.27;;;9.43;;
2538;SDS011;1280;49.760;9.664;2023-08-21T02:15:09;15.93;;;9.77;;
2538;SDS011;1280;49.760;9.664;2023-08-21T02:17:37;20.00;;;10.10;;
2538;SDS011;1280;49.760;9.664;2023-08-21T02:20:09;14.20;;;10.13;;
2538;SDS011;1280;49.760;9.664;2023-08-21T02:22:40;16.63;;;9.90;;
2538;SDS011;1280;49.760;9.664;2023-08-21T02:25:09;13.07;;;9.80;;
2538;SDS011;1280;49.760;9.664;2023-08-21T02:27:37;15.33;;;9.80;;
2538;SDS011;1280;49.760;9.664;2023-08-21T02:30:07;16.53;;;10.00;;
2538;SDS011;1280;49.760;9.664;2023-08-21T02:32:35;13.93;;;9.77;;
2538;SDS011;1280;49.760;9.664;2023-08-21T02:35:05;19.53;;;10.63;;
2538;SDS011;1280;49.760;9.664;2023-08-21T02:37:34;13.60;;;9.40;;
2538;SDS011;1280;49.760;9.664;2023-08-21T02:40:05;13.30;;;9.67;;
2538;SDS011;1280;49.760;9.664;2023-08-21T02:42:35;13.90;;;9.30;;
2538;SDS011;1280;49.760;9.664;2023-08-21T02:45:07;12.43;;;9.30;;
2538;SDS011;1280;49.760;9.664;2023-08-21T02:47:36;16.57;;;9.87;;
2538;SDS011;1280;49.760;9.664;2023-08-21T02:50:06;16.10;;;9.73;;
2538;SDS011;1280;49.760;9.664;2023-08-21T02:52:37;13.40;;;9.40;;
2538;SDS011;1280;49.760;9.664;2023-08-21T02:55:07;18.20;;;10.10;;
2538;SDS011;1280;49.760;9.664;2023-08-21T02:57:35;13.57;;;10.43;;
2538;SDS011;1280;49.760;9.664;2023-08-21T03:00:04;13.67;;;10.07;;
2538;SDS011;1280;49.760;9.664;2023-08-21T03:02:35;14.43;;;10.20;;
2538;SDS011;1280;49.760;9.664;2023-08-21T03:05:04;17.13;;;9.43;;
2538;SDS011;1280;49.760;9.664;2023-08-21T03:07:34;15.03;;;10.20;;
2538;SDS011;1280;49.760;9.664;2023-08-21T03:10:02;16.87;;;10.20;;
2538;SDS011;1280;49.760;9.664;2023-08-21T03:12:31;15.50;;;10.70;;
2538;SDS011;1280;49.760;9.664;2023-08-21T03:14:59;16.67;;;10.67;;
2538;SDS011;1280;49.760;9.664;2023-08-21T03:17:27;16.70;;;11.20;;
2538;SDS011;1280;49.760;9.664;2023-08-21T03:19:57;18.03;;;10.50;;
2538;SDS011;1280;49.760;9.664;2023-08-21T03:22:25;14.60;;;10.13;;
2538;SDS011;1280;49.760;9.664;2023-08-21T03:24:53;15.50;;;10.57;;
2538;SDS011;1280;49.760;9.664;2023-08-21T03:27:21;14.60;;;10.00;;
2538;SDS011;1280;49.760;9.664;2023-08-21T03:29:50;14.97;;;9.60;;
2538;SDS011;1280;49.760;9.664;2023-08-21T03:32:18;16.17;;;9.70;;
2538;SDS011;1280;49.760;9.664;2023-08-21T03:34:46;13.47;;;10.20;;
2538;SDS011;1280;49.760;9.664;2023-08-21T03:37:15;16.20;;;10.27;;
2538;SDS011;1280;49.760;9.664;2023-08-21T03:39:43;17.87;;;10.30;;
2538;SDS011;1280;49.760;9.664;2023-08-21T03:42:11;16.30;;;9.90;;
2538;SDS011;1280;49.760;9.664;2023-08-21T03:44:39;13.70;;;9.93;;
2538;SDS011;1280;49.760;9.664;2023-08-21T03:47:08;18.93;;;9.90;;
2538;SDS011;1280;49.760;9.664;2023-08-21T03:49:45;13.23;;;10.73;;
2538;SDS011;1280;49.760;9.664;2023-08-21T03:52:17;15.43;;;12.07;;
2538;SDS011;1280;49.760;9.664;2023-08-21T03:54:45;14.50;;;11.27;;
2538;SDS011;1280;49.760;9.664;2023-08-21T03:57:13;16.57;;;10.47;;
2538;SDS011;1280;49.760;9.664;2023-08-21T03:59:41;17.43;;;11.37;;
2538;SDS011;1280;49.760;9.664;2023-08-21T04:02:10;26.20;;;11.20;;
2538;SDS011;1280;49.760;9.664;2023-08-21T04:04:37;16.30;;;10.20;;
2538;SDS011;1280;49.760;9.664;2023-08-21T04:07:05;15.93;;;10.07;;
2538;SDS011;1280;49.760;9.664;2023-08-21T04:09:35;14.60;;;9.90;;
2538;SDS011;1280;49.760;9.664;2023-08-21T04:12:03;14.97;;;11.43;;
2538;SDS011;1280;49.760;9.664;2023-08-21T04:14:31;18.73;;;9.60;;
2538;SDS011;1280;49.760;9.664;2023-08-21T04:16:59;13.70;;;10.37;;
2538;SDS011;1280;49.760;9.664;2023-08-21T04:19:27;14.47;;;9.70;;
2538;SDS011;1280;49.760;9.664;2023-08-21T04:21:59;16.03;;;10.10;;
2538;SDS011;1280;49.760;9.664;2023-08-21T04:24:27;20.50;;;9.57;;
2538;SDS011;1280;49.760;9.664;2023-08-21T04:26:56;15.67;;;10.50;;
2538;SDS011;1280;49.760;9.664;2023-08-21T04:29:24;20.23;;;10.60;;
2538;SDS011;1280;49.760;9.664;2023-08-21T04:31:53;16.03;;;10.97;;
2538;SDS011;1280;49.760;9.664;2023-08-21T04:34:21;12.87;;;9.57;;
2538;SDS011;1280;49.760;9.664;2023-08-21T04:36:50;17.53;;;9.73;;
2538;SDS011;1280;49.760;9.664;2023-08-21T04:39:18;15.60;;;10.40;;
2538;SDS011;1280;49.760;9.664;2023-08-21T04:41:46;16.13;;;10.37;;
2538;SDS011;1280;49.760;9.664;2023-08-21T04:44:17;18.33;;;10.10;;
2538;SDS011;1280;49.760;9.664;2023-08-21T04:46:47;18.80;;;10.50;;
2538;SDS011;1280;49.760;9.664;2023-08-21T04:49:16;18.23;;;10.87;;
2538;SDS011;1280;49.760;9.664;2023-08-21T04:51:44;19.77;;;10.93;;
2538;SDS011;1280;49.760;9.664;2023-08-21T04:54:12;15.27;;;10.37;;
2538;SDS011;1280;49.760;9.664;2023-08-21T04:56:40;16.30;;;11.13;;
2538;SDS011;1280;49.760;9.664;2023-08-21T04:59:10;16.47;;;10.50;;
2538;SDS011;1280;49.760;9.664;2023-08-21T05:01:42;15.30;;;9.57;;
2538;SDS011;1280;49.760;9.664;2023-08-21T05:04:11;16.70;;;10.83;;
2538;SDS011;1280;49.760;9.664;2023-08-21T05:06:39;15.20;;;10.00;;
2538;SDS011;1280;49.760;9.664;2023-08-21T05:09:07;16.10;;;9.53;;
2538;SDS011;1280;49.760;9.664;2023-08-21T05:11:35;19.60;;;10.73;;
2538;SDS011;1280;49.760;9.664;2023-08-21T05:14:04;12.60;;;9.43;;
2538;SDS011;1280;49.760;9.664;2023-08-21T05:16:32;14.20;;;9.83;;
2538;SDS011;1280;49.760;9.664;2023-08-21T05:19:01;13.60;;;9.17;;
2538;SDS011;1280;49.760;9.664;2023-08-21T05:21:31;15.20;;;9.77;;
2538;SDS011;1280;49.760;9.664;2023-08-21T05:23:59;13.87;;;9.30;;
2538;SDS011;1280;49.760;9.664;2023-08-21T05:26:28;11.97;;;9.10;;
2538;SDS011;1280;49.760;9.664;2023-08-21T05:28:56;16.27;;;9.50;;
2538;SDS011;1280;49.760;9.664;2023-08-21T05:31:24;13.03;;;9.27;;
2538;SDS011;1280;49.760;9.664;2023-08-21T05:33:53;15.90;;;8.90;;
2538;SDS011;1280;49.760;9.664;2023-08-21T05:36:23;16.40;;;9.43;;
2538;SDS011;1280;49.760;9.664;2023-08-21T05:38:51;17.93;;;8.63;;
2538;SDS011;1280;49.760;9.664;2023-08-21T05:41:19;11.97;;;8.80;;
2538;SDS011;1280;49.760;9.664;2023-08-21T05:43:47;17.87;;;9.20;;
2538;SDS011;1280;49.760;9.664;2023-08-21T05:46:15;13.43;;;9.20;;
2538;SDS011;1280;49.760;9.664;2023-08-21T05:48:43;13.30;;;8.70;;
2538;SDS011;1280;49.760;9.664;2023-08-21T05:51:11;19.03;;;9.90;;
2538;SDS011;1280;49.760;9.664;2023-08-21T05:53:41;14.67;;;9.77;;
2538;SDS011;1280;49.760;9.664;2023-08-21T05:56:09;15.63;;;10.37;;
2538;SDS011;1280;49.760;9.664;2023-08-21T05:58:37;20.40;;;9.57;;
2538;SDS011;1280;49.760;9.664;2023-08-21T06:01:06;16.83;;;9.50;;
2538;SDS011;1280;49.760;9.664;2023-08-21T06:03:35;18.63;;;10.03;;
2538;SDS011;1280;49.760;9.664;2023-08-21T06:06:09;19.37;;;10.83;;
2538;SDS011;1280;49.760;9.664;2023-08-21T06:08:38;20.80;;;12.20;;
2538;SDS011;1280;49.760;9.664;2023-08-21T06:11:08;16.60;;;10.40;;
2538;SDS011;1280;49.760;9.664;2023-08-21T06:13:36;21.43;;;11.60;;
2538;SDS011;1280;49.760;9.664;2023-08-21T06:16:04;16.40;;;11.20;;
2538;SDS011;1280;49.760;9.664;2023-08-21T06:18:35;21.97;;;12.33;;
2538;SDS011;1280;49.760;9.664;2023-08-21T06:21:04;21.40;;;12.87;;
2538;SDS011;1280;49.760;9.664;2023-08-21T06:23:32;18.73;;;12.47;;
2538;SDS011;1280;49.760;9.664;2023-08-21T06:26:01;18.43;;;11.10;;
2538;SDS011;1280;49.760;9.664;2023-08-21T06:28:29;17.40;;;12.10;;
2538;SDS011;1280;49.760;9.664;2023-08-21T06:30:58;19.40;;;11.20;;
2538;SDS011;1280;49.760;9.664;2023-08-21T06:33:31;21.03;;;13.67;;
2538;SDS011;1280;49.760;9.664;2023-08-21T06:36:00;19.60;;;11.63;;
2538;SDS011;1280;49.760;9.664;2023-08-21T06:38:28;18.50;;;12.80;;
2538;SDS011;1280;49.760;9.664;2023-08-21T06:40:56;21.13;;;13.63;;
2538;SDS011;1280;49.760;9.664;2023-08-21T06:43:25;19.10;;;12.87;;
2538;SDS011;1280;49.760;9.664;2023-08-21T06:45:55;19.70;;;12.20;;
2538;SDS011;1280;49.760;9.664;2023-08-21T06:48:23;19.13;;;14.00;;
2538;SDS011;1280;49.760;9.664;2023-08-21T06:50:51;16.30;;;13.10;;
2538;SDS011;1280;49.760;9.664;2023-08-21T06:53:20;17.63;;;13.00;;
2538;SDS011;1280;49.760;9.664;2023-08-21T06:55:48;18.00;;;13.17;;
2538;SDS011;1280;49.760;9.664;2023-08-21T06:58:16;18.40;;;13.43;;
2538;SDS011;1280;49.760;9.664;2023-08-21T07:00:45;22.27;;;13.30;;
2538;SDS011;1280;49.760;9.664;2023-08-21T07:03:13;25.13;;;14.30;;
2538;SDS011;1280;49.760;9.664;2023-08-21T07:05:45;21.83;;;14.20;;
2538;SDS011;1280;49.760;9.664;2023-08-21T07:08:14;22.47;;;12.77;;
2538;SDS011;1280;49.760;9.664;2023-08-21T07:10:42;15.77;;;13.50;;
2538;SDS011;1280;49.760;9.664;2023-08-21T07:13:10;18.23;;;13.63;;
2538;SDS011;1280;49.760;9.664;2023-08-21T07:15:38;19.13;;;13.53;;
2538;SDS011;1280;49.760;9.664;2023-08-21T07:18:08;21.70;;;13.93;;
2538;SDS011;1280;49.760;9.664;2023-08-21T07:20:36;17.10;;;12.80;;
2538;SDS011;1280;49.760;9.664;2023-08-21T07:23:04;16.93;;;13.03;;
2538;SDS011;1280;49.760;9.664;2023-08-21T07:25:32;20.63;;;13.97;;
2538;SDS011;1280;49.760;9.664;2023-08-21T07:28:00;17.93;;;13.67;;
2538;SDS011;1280;49.760;9.664;2023-08-21T07:30:28;18.87;;;13.00;;
2538;SDS011;1280;49.760;9.664;2023-08-21T07:32:57;17.57;;;14.00;;
2538;SDS011;1280;49.760;9.664;2023-08-21T07:35:27;19.70;;;14.43;;
2538;SDS011;1280;49.760;9.664;2023-08-21T07:37:55;20.83;;;15.20;;
2538;SDS011;1280;49.760;9.664;2023-08-21T07:40:23;20.80;;;15.10;;
2538;SDS011;1280;49.760;9.664;2023-08-21T07:42:51;16.43;;;14.00;;
2538;SDS011;1280;49.760;9.664;2023-08-21T07:45:19;17.13;;;13.80;;
2538;SDS011;1280;49.760;9.664;2023-08-21T07:47:47;22.93;;;14.93;;
2538;SDS011;1280;49.760;9.664;2023-08-21T07:50:35;22.80;;;14.93;;
2538;SDS011;1280;49.760;9.664;2023-08-21T07:53:03;25.40;;;15.50;;
2538;SDS011;1280;49.760;9.664;2023-08-21T07:55:31;24.07;;;15.47;;
2538;SDS011;1280;49.760;9.664;2023-08-21T07:57:59;22.83;;;14.90;;
2538;SDS011;1280;49.760;9.664;2023-08-21T08:00:27;19.43;;;14.17;;
2538;SDS011;1280;49.760;9.664;2023-08-21T08:02:55;21.13;;;15.00;;
2538;SDS011;1280;49.760;9.664;2023-08-21T08:05:24;19.90;;;15.50;;
2538;SDS011;1280;49.760;9.664;2023-08-21T08:07:53;17.83;;;14.07;;
2538;SDS011;1280;49.760;9.664;2023-08-21T08:10:21;21.33;;;15.40;;
2538;SDS011;1280;49.760;9.664;2023-08-21T08:12:49;19.47;;;14.53;;
2538;SDS011;1280;49.760;9.664;2023-08-21T08:15:17;20.23;;;14.90;;
2538;SDS011;1280;49.760;9.664;2023-08-21T08:17:46;19.20;;;14.57;;
2538;SDS011;1280;49.760;9.664;2023-08-21T08:20:18;18.47;;;15.17;;
2538;SDS011;1280;49.760;9.664;2023-08-21T08:22:46;20.67;;;14.80;;
2538;SDS011;1280;49.760;9.664;2023-08-21T08:25:15;21.83;;;17.60;;
2538;SDS011;1280;49.760;9.664;2023-08-21T08:27:44;19.53;;;16.00;;
2538;SDS011;1280;49.760;9.664;2023-08-21T08:30:12;23.80;;;15.80;;
2538;SDS011;1280;49.760;9.664;2023-08-21T08:32:41;22.37;;;17.33;;
2538;SDS011;1280;49.760;9.664;2023-08-21T08:35:12;21.80;;;16.20;;
2538;SDS011;1280;49.760;9.664;2023-08-21T08:37:40;19.83;;;15.80;;
2538;SDS011;1280;49.760;9.664;2023-08-21T08:40:09;22.80;;;16.47;;
2538;SDS011;1280;49.760;9.664;2023-08-21T08:42:40;19.47;;;15.93;;
2538;SDS011;1280;49.760;9.664;2023-08-21T08:45:12;23.30;;;16.80;;
2538;SDS011;1280;49.760;9.664;2023-08-21T08:47:41;22.87;;;16.93;;
2538;SDS011;1280;49.760;9.664;2023-08-21T08:50:10;22.67;;;17.97;;
2538;SDS011;1280;49.760;9.664;2023-08-21T08:52:40;25.10;;;18.10;;
2538;SDS011;1280;49.760;9.664;2023-08-21T08:55:08;22.43;;;18.40;;
2538;SDS011;1280;49.760;9.664;2023-08-21T08:57:37;21.53;;;17.03;;
2538;SDS011;1280;49.760;9.664;2023-08-21T09:00:08;21.10;;;16.23;;
2538;SDS011;1280;49.760;9.664;2023-08-21T09:02:37;20.80;;;17.53;;
2538;SDS011;1280;49.760;9.664;2023-08-21T09:05:06;19.97;;;17.83;;
2538;SDS011;1280;49.760;9.664;2023-08-21T09:07:37;22.87;;;17.87;;
2538;SDS011;1280;49.760;9.664;2023-08-21T09:10:08;20.93;;;16.17;;
2538;SDS011;1280;49.760;9.664;2023-08-21T09:12:40;23.60;;;17.43;;
2538;SDS011;1280;49.760;9.664;2023-08-21T09:15:13;19.70;;;16.37;;
2538;SDS011;1280;49.760;9.664;2023-08-21T09:17:41;23.50;;;17.33;;
2538;SDS011;1280;49.760;9.664;2023-08-21T09:20:09;25.70;;;18.57;;
2538;SDS011;1280;49.760;9.664;2023-08-21T09:22:38;20.50;;;15.80;;
2538;SDS011;1280;49.760;9.664;2023-08-21T09:25:06;19.80;;;16.57;;
2538;SDS011;1280;49.760;9.664;2023-08-21T09:27:37;19.03;;;16.33;;
2538;SDS011;1280;49.760;9.664;2023-08-21T09:30:08;17.60;;;14.73;;
2538;SDS011;1280;49.760;9.664;2023-08-21T09:32:55;17.33;;;13.60;;
2538;SDS011;1280;49.760;9.664;2023-08-21T09:35:27;19.27;;;14.33;;
2538;SDS011;1280;49.760;9.664;2023-08-21T09:37:55;17.97;;;14.07;;
2538;SDS011;1280;49.760;9.664;2023-08-21T09:40:23;15.27;;;12.03;;
2538;SDS011;1280;49.760;9.664;2023-08-21T09:42:52;19.97;;;10.80;;
2538;SDS011;1280;49.760;9.664;2023-08-21T09:45:21;15.10;;;9.93;;
2538;SDS011;1280;49.760;9.664;2023-08-21T09:47:50;13.20;;;9.23;;
2538;SDS011;1280;49.760;9.664;2023-08-21T09:50:21;16.77;;;9.47;;
2538;SDS011;1280;49.760;9.664;2023-08-21T09:52:49;15.33;;;9.57;;
2538;SDS011;1280;49.760;9.664;2023-08-21T09:55:19;16.33;;;10.10;;
2538;SDS011;1280;49.760;9.664;2023-08-21T09:57:49;14.20;;;10.40;;
2538;SDS011;1280;49.760;9.664;2023-08-21T10:00:29;14.50;;;9.57;;
2538;SDS011;1280;49.760;9.664;2023-08-21T10:02:59;14.27;;;9.70;;
2538;SDS011;1280;49.760;9.664;2023-08-21T10:05:31;14.47;;;9.50;;
2538;SDS011;1280;49.760;9.664;2023-08-21T10:08:00;14.50;;;8.83;;
2538;SDS011;1280;49.760;9.664;2023-08-21T10:10:34;13.07;;;8.30;;
2538;SDS011;1280;49.760;9.664;2023-08-21T10:17:11;15.17;;;6.90;;
2538;SDS011;1280;49.760;9.664;2023-08-21T10:19:40;13.67;;;8.80;;
2538;SDS011;1280;49.760;9.664;2023-08-21T10:22:09;14.13;;;8.53;;
2538;SDS011;1280;49.760;9.664;2023-08-21T10:24:38;13.73;;;8.00;;
2538;SDS011;1280;49.760;9.664;2023-08-21T10:27:06;8.93;;;7.03;;
2538;SDS011;1280;49.760;9.664;2023-08-21T10:29:34;9.40;;;6.60;;
2538;SDS011;1280;49.760;9.664;2023-08-21T10:32:03;12.50;;;5.93;;
2538;SDS011;1280;49.760;9.664;2023-08-21T10:34:33;8.40;;;6.33;;
2538;SDS011;1280;49.760;9.664;2023-08-21T10:37:05;16.27;;;7.40;;
2538;SDS011;1280;49.760;9.664;2023-08-21T10:39:37;13.37;;;7.03;;
2538;SDS011;1280;49.760;9.664;2023-08-21T10:42:09;11.17;;;6.50;;
2538;SDS011;1280;49.760;9.664;2023-08-21T10:44:47;10.00;;;7.33;;
2538;SDS011;1280;49.760;9.664;2023-08-21T10:47:19;13.73;;;7.83;;
2538;SDS011;1280;49.760;9.664;2023-08-21T10:49:50;10.90;;;7.53;;
2538;SDS011;1280;49.760;9.664;2023-08-21T10:52:20;8.70;;;6.10;;
2538;SDS011;1280;49.760;9.664;2023-08-21T10:54:52;11.10;;;6.80;;
2538;SDS011;1280;49.760;9.664;2023-08-21T10:57:22;10.60;;;6.57;;
2538;SDS011;1280;49.760;9.664;2023-08-21T10:59:51;12.00;;;7.60;;
2538;SDS011;1280;49.760;9.664;2023-08-21T11:02:20;16.20;;;7.20;;
2538;SDS011;1280;49.760;9.664;2023-08-21T11:04:50;10.60;;;6.93;;
2538;SDS011;1280;49.760;9.664;2023-08-21T11:07:18;12.30;;;7.10;;
2538;SDS011;1280;49.760;9.664;2023-08-21T11:09:47;12.43;;;7.10;;
2538;SDS011;1280;49.760;9.664;2023-08-21T11:12:18;8.50;;;6.10;;
2538;SDS011;1280;49.760;9.664;2023-08-21T11:14:47;9.00;;;6.27;;
2538;SDS011;1280;49.760;9.664;2023-08-21T11:17:16;10.40;;;6.60;;
2538;SDS011;1280;49.760;9.664;2023-08-21T11:19:46;14.23;;;8.60;;
2538;SDS011;1280;49.760;9.664;2023-08-21T11:22:15;13.60;;;7.07;;
2538;SDS011;1280;49.760;9.664;2023-08-21T11:24:44;8.30;;;5.97;;
2538;SDS011;1280;49.760;9.664;2023-08-21T11:27:14;12.60;;;5.93;;
2538;SDS011;1280;49.760;9.664;2023-08-21T11:29:45;13.10;;;7.93;;
2538;SDS011;1280;49.760;9.664;2023-08-21T11:32:14;30.00;;;11.77;;
2538;SDS011;1280;49.760;9.664;2023-08-21T11:34:47;17.00;;;8.90;;
2538;SDS011;1280;49.760;9.664;2023-08-21T11:37:16;9.70;;;6.33;;
2538;SDS011;1280;49.760;9.664;2023-08-21T11:39:46;10.73;;;5.20;;
2538;SDS011;1280;49.760;9.664;2023-08-21T11:42:15;12.00;;;6.40;;
2538;SDS011;1280;49.760;9.664;2023-08-21T11:44:45;11.47;;;6.73;;
2538;SDS011;1280;49.760;9.664;2023-08-21T11:47:15;9.57;;;4.97;;
2538;SDS011;1280;49.760;9.664;2023-08-21T11:49:44;8.03;;;5.20;;
2538;SDS011;1280;49.760;9.664;2023-08-21T11:52:17;7.47;;;4.90;;
2538;SDS011;1280;49.760;9.664;2023-08-21T11:54:47;8.03;;;4.73;;
2538;SDS011;1280;49.760;9.664;2023-08-21T11:57:17;9.50;;;4.80;;
2538;SDS011;1280;49.760;9.664;2023-08-21T11:59:50;11.33;;;5.70;;
2538;SDS011;1280;49.760;9.664;2023-08-21T12:02:21;8.80;;;5.60;;
2538;SDS011;1280;49.760;9.664;2023-08-21T12:04:53;9.93;;;5.00;;
2538;SDS011;1280;49.760;9.664;2023-08-21T12:07:22;8.00;;;5.40;;
2538;SDS011;1280;49.760;9.664;2023-08-21T12:09:50;8.83;;;5.00;;
2538;SDS011;1280;49.760;9.664;2023-08-21T12:12:17;12.53;;;5.70;;
2538;SDS011;1280;49.760;9.664;2023-08-21T12:14:46;9.23;;;5.40;;
2538;SDS011;1280;49.760;9.664;2023-08-21T12:17:15;9.77;;;5.90;;
2538;SDS011;1280;49.760;9.664;2023-08-21T12:19:43;8.30;;;5.40;;
2538;SDS011;1280;49.760;9.664;2023-08-21T12:22:11;10.43;;;5.77;;
2538;SDS011;1280;49.760;9.664;2023-08-21T12:24:39;8.83;;;5.40;;
2538;SDS011;1280;49.760;9.664;2023-08-21T12:27:07;9.40;;;5.90;;
2538;SDS011;1280;49.760;9.664;2023-08-21T12:29:35;10.97;;;5.40;;
2538;SDS011;1280;49.760;9.664;2023-08-21T12:32:04;9.63;;;5.57;;
2538;SDS011;1280;49.760;9.664;2023-08-21T12:34:33;9.60;;;5.30;;
2538;SDS011;1280;49.760;9.664;2023-08-21T12:37:01;8.60;;;5.67;;
2538;SDS011;1280;49.760;9.664;2023-08-21T12:39:30;11.63;;;5.47;;
2538;SDS011;1280;49.760;9.664;2023-08-21T12:41:58;8.50;;;5.37;;
2538;SDS011;1280;49.760;9.664;2023-08-21T12:44:28;12.67;;;6.63;;
2538;SDS011;1280;49.760;9.664;2023-08-21T12:47:01;10.00;;;6.17;;
2538;SDS011;1280;49.760;9.664;2023-08-21T12:49:31;8.33;;;6.07;;
2538;SDS011;1280;49.760;9.664;2023-08-21T12:52:01;9.40;;;6.07;;
2538;SDS011;1280;49.760;9.664;2023-08-21T12:54:32;9.13;;;6.00;;
2538;SDS011;1280;49.760;9.664;2023-08-21T12:57:01;10.83;;;5.97;;
2538;SDS011;1280;49.760;9.664;2023-08-21T12:59:29;11.93;;;6.30;;
2538;SDS011;1280;49.760;9.664;2023-08-21T13:01:58;13.83;;;6.63;;
2538;SDS011;1280;49.760;9.664;2023-08-21T13:04:26;12.23;;;6.33;;
2538;SDS011;1280;49.760;9.664;2023-08-21T13:06:56;9.67;;;6.20;;
2538;SDS011;1280;49.760;9.664;2023-08-21T13:09:25;10.77;;;6.20;;
2538;SDS011;1280;49.760;9.664;2023-08-21T13:11:53;8.67;;;6.00;;
2538;SDS011;1280;49.760;9.664;2023-08-21T13:14:22;8.33;;;5.77;;
2538;SDS011;1280;49.760;9.664;2023-08-21T13:16:50;9.80;;;5.67;;
2538;SDS011;1280;49.760;9.664;2023-08-21T13:19:18;9.97;;;5.70;;
2538;SDS011;1280;49.760;9.664;2023-08-21T13:26:00;11.50;;;5.87;;
2538;SDS011;1280;49.760;9.664;2023-08-21T13:28:28;10.60;;;6.13;;
2538;SDS011;1280;49.760;9.664;2023-08-21T13:30:59;8.97;;;5.53;;
2538;SDS011;1280;49.760;9.664;2023-08-21T13:33:27;10.90;;;6.50;;
2538;SDS011;1280;49.760;9.664;2023-08-21T13:35:57;10.83;;;6.50;;
2538;SDS011;1280;49.760;9.664;2023-08-21T13:38:25;9.30;;;6.43;;
2538;SDS011;1280;49.760;9.664;2023-08-21T13:40:53;9.33;;;5.93;;
2538;SDS011;1280;49.760;9.664;2023-08-21T13:43:23;10.10;;;5.87;;
2538;SDS011;1280;49.760;9.664;2023-08-21T13:45:54;9.87;;;6.70;;
2538;SDS011;1280;49.760;9.664;2023-08-21T13:52:29;7.33;;;4.90;;
2538;SDS011;1280;49.760;9.664;2023-08-21T13:54:58;9.10;;;5.97;;
2538;SDS011;1280;49.760;9.664;2023-08-21T13:57:26;9.40;;;5.90;;
2538;SDS011;1280;49.760;9.664;2023-08-21T13:59:55;11.00;;;5.67;;
2538;SDS011;1280;49.760;9.664;2023-08-21T14:02:23;8.43;;;5.90;;
2538;SDS011;1280;49.760;9.664;2023-08-21T14:04:51;9.67;;;6.13;;
2538;SDS011;1280;49.760;9.664;2023-08-21T14:07:19;10.40;;;6.07;;
2538;SDS011;1280;49.760;9.664;2023-08-21T14:09:47;8.60;;;5.80;;
2538;SDS011;1280;49.760;9.664;2023-08-21T14:12:16;10.17;;;5.70;;
2538;SDS011;1280;49.760;9.664;2023-08-21T14:14:45;10.73;;;5.43;;
2538;SDS011;1280;49.760;9.664;2023-08-21T14:17:14;7.70;;;5.37;;
2538;SDS011;1280;49.760;9.664;2023-08-21T14:19:42;8.83;;;5.30;;
2538;SDS011;1280;49.760;9.664;2023-08-21T14:22:10;8.27;;;5.63;;
2538;SDS011;1280;49.760;9.664;2023-08-21T14:24:39;9.23;;;5.40;;
2538;SDS011;1280;49.760;9.664;2023-08-21T14:27:07;7.50;;;5.10;;
2538;SDS011;1280;49.760;9.664;2023-08-21T14:29:35;7.70;;;5.77;;
2538;SDS011;1280;49.760;9.664;2023-08-21T14:32:03;8.90;;;5.40;;
2538;SDS011;1280;49.760;9.664;2023-08-21T14:34:33;10.33;;;5.87;;
2538;SDS011;1280;49.760;9.664;2023-08-21T14:37:01;7.77;;;5.40;;
2538;SDS011;1280;49.760;9.664;2023-08-21T14:39:30;9.97;;;5.40;;
2538;SDS011;1280;49.760;9.664;2023-08-21T14:41:58;10.13;;;5.70;;
2538;SDS011;1280;49.760;9.664;2023-08-21T14:44:28;9.90;;;5.77;;
2538;SDS011;1280;49.760;9.664;2023-08-21T14:46:56;8.73;;;5.43;;
2538;SDS011;1280;49.760;9.664;2023-08-21T14:49:28;9.50;;;5.50;;
2538;SDS011;1280;49.760;9.664;2023-08-21T14:51:58;17.33;;;5.97;;
2538;SDS011;1280;49.760;9.664;2023-08-21T14:54:26;8.43;;;5.67;;
2538;SDS011;1280;49.760;9.664;2023-08-21T14:56:54;10.63;;;5.90;;
2538;SDS011;1280;49.760;9.664;2023-08-21T14:59:22;8.57;;;5.70;;
2538;SDS011;1280;49.760;9.664;2023-08-21T15:01:51;7.40;;;4.97;;
2538;SDS011;1280;49.760;9.664;2023-08-21T15:04:21;7.67;;;4.50;;
2538;SDS011;1280;49.760;9.664;2023-08-21T15:06:49;9.80;;;4.70;;
2538;SDS011;1280;49.760;9.664;2023-08-21T15:09:19;10.43;;;5.63;;
2538;SDS011;1280;49.760;9.664;2023-08-21T15:11:48;8.57;;;5.40;;
2538;SDS011;1280;49.760;9.664;2023-08-21T15:14:16;8.93;;;5.20;;
2538;SDS011;1280;49.760;9.664;2023-08-21T15:16:43;11.50;;;5.60;;
2538;SDS011;1280;49.760;9.664;2023-08-21T15:19:13;9.63;;;6.10;;
2538;SDS011;1280;49.760;9.664;2023-08-21T15:21:41;9.60;;;5.40;;
2538;SDS011;1280;49.760;9.664;2023-08-21T15:24:11;7.77;;;5.40;;
2538;SDS011;1280;49.760;9.664;2023-08-21T15:26:40;7.87;;;4.83;;